sensor_id;sensor_type;location;lat;lon;timestamp;pressure;altitude;pressure_sealevel;temperature;humidity
84967;BME280;75275;51.348;12.358;2024-03-07T00:02:17;101375.28;;;7.29;64.15
84967;BME280;75275;51.348;12.358;2024-03-07T00:04:44;101377.78;;;7.30;64.84
84967;BME280;75275;51.348;12.358;2024-03-07T00:07:11;101376.03;;;7.36;63.76
84967;BME280;75275;51.348;12.358;2024-03-07T00:09:38;101366.25;;;7.28;64.67
84967;BME280;75275;51.348;12.358;2024-03-07T00:12:07;101375.50;;;7.27;64.90
84967;BME280;75275;51.348;12.358;2024-03-07T00:14:37;101368.91;;;7.35;64.28
84967;BME280;75275;51.348;12.358;2024-03-07T00:17:05;101374.69;;;7.27;65.31
84967;BME280;75275;51.348;12.358;2024-03-07T00:19:32;101377.47;;;7.20;65.48
84967;BME280;75275;51.348;12.358;2024-03-07T00:21:59;101383.13;;;7.18;65.54
84967;BME280;75275;51.348;12.358;2024-03-07T00:24:26;101385.25;;;7.16;65.90
84967;BME280;75275;51.348;12.358;2024-03-07T00:26:56;101386.53;;;7.14;67.29
84967;BME280;75275;51.348;12.358;2024-03-07T00:29:23;101385.66;;;7.20;67.46
84967;BME280;75275;51.348;12.358;2024-03-07T00:31:51;101386.25;;;7.22;67.01
84967;BME280;75275;51.348;12.358;2024-03-07T00:34:19;101384.03;;;7.12;68.03
84967;BME280;75275;51.348;12.358;2024-03-07T00:36:48;101386.00;;;7.05;67.86
84967;BME280;75275;51.348;12.358;2024-03-07T00:39:17;101384.09;;;7.06;68.85
84967;BME280;75275;51.348;12.358;2024-03-07T00:41:45;101375.47;;;7.09;69.41
84967;BME280;75275;51.348;12.358;2024-03-07T00:44:12;101374.84;;;7.07;69.11
84967;BME280;75275;51.348;12.358;2024-03-07T00:46:38;101372.03;;;6.95;70.06
84967;BME280;75275;51.348;12.358;2024-03-07T00:49:05;101374.91;;;7.00;69.99
84967;BME280;75275;51.348;12.358;2024-03-07T00:51:36;101373.41;;;7.04;70.01
84967;BME280;75275;51.348;12.358;2024-03-07T00:54:03;101374.47;;;7.03;70.49
84967;BME280;75275;51.348;12.358;2024-03-07T00:56:30;101366.16;;;6.98;70.17
84967;BME280;75275;51.348;12.358;2024-03-07T00:58:56;101366.16;;;6.98;70.89
84967;BME280;75275;51.348;12.358;2024-03-07T01:01:24;101364.41;;;7.04;70.80
84967;BME280;75275;51.348;12.358;2024-03-07T01:03:52;101364.34;;;7.10;70.46
84967;BME280;75275;51.348;12.358;2024-03-07T01:06:22;101351.94;;;7.14;70.48
84967;BME280;75275;51.348;12.358;2024-03-07T01:08:50;101356.34;;;7.15;70.28
84967;BME280;75275;51.348;12.358;2024-03-07T01:11:20;101359.66;;;7.17;70.20
84967;BME280;75275;51.348;12.358;2024-03-07T01:13:47;101346.66;;;7.19;70.50
84967;BME280;75275;51.348;12.358;2024-03-07T01:16:15;101352.25;;;7.24;69.65
84967;BME280;75275;51.348;12.358;2024-03-07T01:18:42;101346.16;;;7.22;70.52
84967;BME280;75275;51.348;12.358;2024-03-07T01:21:09;101344.50;;;7.21;70.96
84967;BME280;75275;51.348;12.358;2024-03-07T01:23:36;101342.84;;;7.20;71.36
84967;BME280;75275;51.348;12.358;2024-03-07T01:28:47;101348.75;;;7.17;72.57
84967;BME280;75275;51.348;12.358;2024-03-07T01:31:14;101349.75;;;7.23;73.02
84967;BME280;75275;51.348;12.358;2024-03-07T01:33:41;101343.22;;;7.24;73.03
84967;BME280;75275;51.348;12.358;2024-03-07T01:36:08;101343.00;;;7.26;73.36
84967;BME280;75275;51.348;12.358;2024-03-07T01:38:34;101353.06;;;7.25;73.29
84967;BME280;75275;51.348;12.358;2024-03-07T01:41:02;101345.34;;;7.22;73.71
84967;BME280;75275;51.348;12.358;2024-03-07T01:43:29;101343.69;;;7.21;73.50
84967;BME280;75275;51.348;12.358;2024-03-07T01:45:58;101341.94;;;7.08;74.72
84967;BME280;75275;51.348;12.358;2024-03-07T01:48:26;101349.03;;;6.91;75.67
84967;BME280;75275;51.348;12.358;2024-03-07T01:50:54;101339.78;;;6.92;76.06
84967;BME280;75275;51.348;12.358;2024-03-07T01:53:25;101334.88;;;7.00;75.83
84967;BME280;75275;51.348;12.358;2024-03-07T01:55:52;101330.41;;;7.06;74.43
84967;BME280;75275;51.348;12.358;2024-03-07T01:58:21;101334.97;;;7.12;75.50
84967;BME280;75275;51.348;12.358;2024-03-07T02:00:48;101334.97;;;7.12;76.06
84967;BME280;75275;51.348;12.358;2024-03-07T02:03:17;101332.19;;;7.19;75.70
84967;BME280;75275;51.348;12.358;2024-03-07T02:05:44;101325.03;;;7.18;75.64
84967;BME280;75275;51.348;12.358;2024-03-07T02:08:11;101324.91;;;7.13;75.99
84967;BME280;75275;51.348;12.358;2024-03-07T02:10:40;101328.59;;;7.18;75.38
84967;BME280;75275;51.348;12.358;2024-03-07T02:13:07;101328.31;;;7.27;76.19
84967;BME280;75275;51.348;12.358;2024-03-07T02:15:35;101321.41;;;7.24;75.77
84967;BME280;75275;51.348;12.358;2024-03-07T02:18:02;101320.41;;;7.18;75.35
84967;BME280;75275;51.348;12.358;2024-03-07T02:20:31;101311.66;;;7.16;75.53
84967;BME280;75275;51.348;12.358;2024-03-07T02:23:00;101313.63;;;7.09;77.21
84967;BME280;75275;51.348;12.358;2024-03-07T02:25:27;101320.34;;;7.07;76.26
84967;BME280;75275;51.348;12.358;2024-03-07T02:27:57;101316.94;;;7.11;75.96
84967;BME280;75275;51.348;12.358;2024-03-07T02:30:24;101313.56;;;7.16;76.19
84967;BME280;75275;51.348;12.358;2024-03-07T02:32:53;101310.00;;;7.15;75.25
84967;BME280;75275;51.348;12.358;2024-03-07T02:35:25;101306.78;;;7.18;75.14
84967;BME280;75275;51.348;12.358;2024-03-07T02:37:52;101303.69;;;7.15;75.99
84967;BME280;75275;51.348;12.358;2024-03-07T02:40:21;101300.56;;;7.11;76.31
84967;BME280;75275;51.348;12.358;2024-03-07T02:42:48;101293.53;;;7.04;76.83
84967;BME280;75275;51.348;12.358;2024-03-07T02:45:15;101303.59;;;7.03;76.57
84967;BME280;75275;51.348;12.358;2024-03-07T02:47:42;101299.38;;;7.07;77.08
84967;BME280;75275;51.348;12.358;2024-03-07T02:50:10;101305.25;;;7.04;76.25
84967;BME280;75275;51.348;12.358;2024-03-07T02:52:37;101290.59;;;7.05;77.89
84967;BME280;75275;51.348;12.358;2024-03-07T02:55:05;101293.47;;;7.10;77.54
84967;BME280;75275;51.348;12.358;2024-03-07T02:57:37;101294.16;;;7.06;77.19
84967;BME280;75275;51.348;12.358;2024-03-07T03:00:05;101305.81;;;7.13;77.09
84967;BME280;75275;51.348;12.358;2024-03-07T03:02:45;101299.09;;;7.15;77.52
84967;BME280;75275;51.348;12.358;2024-03-07T03:05:12;101301.19;;;7.13;77.42
84967;BME280;75275;51.348;12.358;2024-03-07T03:07:43;101299.53;;;7.12;77.59
84967;BME280;75275;51.348;12.358;2024-03-07T03:10:18;101298.47;;;7.13;77.83
84967;BME280;75275;51.348;12.358;2024-03-07T03:12:51;101297.84;;;7.11;77.97
84967;BME280;75275;51.348;12.358;2024-03-07T03:15:18;101298.78;;;7.05;78.44
84967;BME280;75275;51.348;12.358;2024-03-07T03:17:46;101289.09;;;7.09;78.18
84967;BME280;75275;51.348;12.358;2024-03-07T03:20:14;101294.66;;;7.14;77.59
84967;BME280;75275;51.348;12.358;2024-03-07T03:22:51;101297.84;;;7.11;77.73
84967;BME280;75275;51.348;12.358;2024-03-07T03:25:18;101290.91;;;7.15;77.61
84967;BME280;75275;51.348;12.358;2024-03-07T03:27:52;101299.66;;;6.99;78.16
84967;BME280;75275;51.348;12.358;2024-03-07T03:30:23;101288.31;;;6.84;78.56
84967;BME280;75275;51.348;12.358;2024-03-07T03:32:50;101299.22;;;6.84;79.34
84967;BME280;75275;51.348;12.358;2024-03-07T03:35:17;101297.06;;;6.86;79.20
84967;BME280;75275;51.348;12.358;2024-03-07T03:37:45;101294.53;;;6.91;78.84
84967;BME280;75275;51.348;12.358;2024-03-07T03:40:12;101296.31;;;6.97;79.10
84967;BME280;75275;51.348;12.358;2024-03-07T03:42:40;101290.22;;;7.02;79.13
84967;BME280;75275;51.348;12.358;2024-03-07T03:45:10;101286.34;;;7.09;78.13
84967;BME280;75275;51.348;12.358;2024-03-07T03:47:40;101288.00;;;7.10;78.17
84967;BME280;75275;51.348;12.358;2024-03-07T03:50:09;101288.84;;;7.11;77.39
84967;BME280;75275;51.348;12.358;2024-03-07T03:52:37;101284.47;;;7.10;78.27
84967;BME280;75275;51.348;12.358;2024-03-07T03:55:05;101277.88;;;7.17;77.49
84967;BME280;75275;51.348;12.358;2024-03-07T03:57:33;101284.84;;;7.13;77.67
84967;BME280;75275;51.348;12.358;2024-03-07T04:00:00;101281.03;;;7.14;78.30
84967;BME280;75275;51.348;12.358;2024-03-07T04:02:34;101276.78;;;7.18;77.88
84967;BME280;75275;51.348;12.358;2024-03-07T04:05:03;101276.91;;;7.12;78.37
84967;BME280;75275;51.348;12.358;2024-03-07T04:07:30;101281.34;;;7.06;78.52
84967;BME280;75275;51.348;12.358;2024-03-07T04:09:57;101288.00;;;7.10;78.22
84967;BME280;75275;51.348;12.358;2024-03-07T04:12:24;101292.19;;;7.13;77.73
84967;BME280;75275;51.348;12.358;2024-03-07T04:14:53;101287.44;;;7.08;77.51
84967;BME280;75275;51.348;12.358;2024-03-07T04:17:21;101277.88;;;7.17;77.40
84967;BME280;75275;51.348;12.358;2024-03-07T04:19:49;101281.97;;;7.27;76.99
84967;BME280;75275;51.348;12.358;2024-03-07T04:22:16;101275.28;;;7.22;76.48
84967;BME280;75275;51.348;12.358;2024-03-07T04:24:44;101278.31;;;7.14;77.30
84967;BME280;75275;51.348;12.358;2024-03-07T04:27:11;101272.56;;;7.04;77.78
84967;BME280;75275;51.348;12.358;2024-03-07T04:29:38;101278.69;;;6.99;77.78
84967;BME280;75275;51.348;12.358;2024-03-07T04:32:05;101277.41;;;7.02;77.11
84967;BME280;75275;51.348;12.358;2024-03-07T04:34:34;101278.63;;;7.06;77.35
84967;BME280;75275;51.348;12.358;2024-03-07T04:37:03;101277.34;;;7.09;76.66
84967;BME280;75275;51.348;12.358;2024-03-07T04:39:33;101277.94;;;7.11;77.80
84967;BME280;75275;51.348;12.358;2024-03-07T04:42:02;101284.69;;;7.08;77.10
84967;BME280;75275;51.348;12.358;2024-03-07T04:44:29;101282.03;;;7.02;76.85
84967;BME280;75275;51.348;12.358;2024-03-07T04:46:59;101282.63;;;7.04;77.85
84967;BME280;75275;51.348;12.358;2024-03-07T04:49:27;101287.31;;;6.96;76.93
84967;BME280;75275;51.348;12.358;2024-03-07T04:51:56;101284.44;;;6.91;77.16
84967;BME280;75275;51.348;12.358;2024-03-07T04:54:32;101279.06;;;6.85;76.95
84967;BME280;75275;51.348;12.358;2024-03-07T04:57:01;101285.41;;;6.79;76.39
84967;BME280;75275;51.348;12.358;2024-03-07T04:59:28;101280.88;;;6.72;76.71
84967;BME280;75275;51.348;12.358;2024-03-07T05:01:56;101286.84;;;6.81;76.93
84967;BME280;75275;51.348;12.358;2024-03-07T05:04:23;101283.69;;;6.84;77.20
84967;BME280;75275;51.348;12.358;2024-03-07T05:06:54;101286.84;;;6.81;77.22
84967;BME280;75275;51.348;12.358;2024-03-07T05:12:08;101293.09;;;6.63;77.28
84967;BME280;75275;51.348;12.358;2024-03-07T05:14:36;101289.31;;;6.64;76.94
84967;BME280;75275;51.348;12.358;2024-03-07T05:17:03;101294.75;;;6.64;77.31
84967;BME280;75275;51.348;12.358;2024-03-07T05:19:34;101296.22;;;6.67;76.96
84967;BME280;75275;51.348;12.358;2024-03-07T05:22:02;101301.47;;;6.68;75.77
84967;BME280;75275;51.348;12.358;2024-03-07T05:24:30;101299.81;;;6.61;76.25
84967;BME280;75275;51.348;12.358;2024-03-07T05:26:58;101304.44;;;6.60;76.46
84967;BME280;75275;51.348;12.358;2024-03-07T05:29:26;101302.88;;;6.46;75.72
84967;BME280;75275;51.348;12.358;2024-03-07T05:31:55;101313.19;;;6.44;76.27
84967;BME280;75275;51.348;12.358;2024-03-07T05:34:22;101313.66;;;6.34;76.15
84967;BME280;75275;51.348;12.358;2024-03-07T05:36:49;101308.03;;;6.36;76.44
84967;BME280;75275;51.348;12.358;2024-03-07T05:39:17;101310.50;;;6.37;76.38
84967;BME280;75275;51.348;12.358;2024-03-07T05:41:44;101303.00;;;6.33;75.51
84967;BME280;75275;51.348;12.358;2024-03-07T05:44:12;101304.91;;;6.32;75.80
84967;BME280;75275;51.348;12.358;2024-03-07T05:46:41;101309.44;;;6.38;75.50
84967;BME280;75275;51.348;12.358;2024-03-07T05:49:12;101312.59;;;6.35;75.91
84967;BME280;75275;51.348;12.358;2024-03-07T05:51:38;101308.91;;;6.30;74.65
84967;BME280;75275;51.348;12.358;2024-03-07T05:54:07;101314.44;;;6.16;75.25
84967;BME280;75275;51.348;12.358;2024-03-07T05:56:34;101311.97;;;6.08;75.61
84967;BME280;75275;51.348;12.358;2024-03-07T05:59:02;101314.53;;;6.03;76.08
84967;BME280;75275;51.348;12.358;2024-03-07T06:01:32;101314.53;;;6.03;75.90
84967;BME280;75275;51.348;12.358;2024-03-07T06:04:02;101316.63;;;6.01;74.89
84967;BME280;75275;51.348;12.358;2024-03-07T06:06:31;101315.13;;;6.05;75.20
84967;BME280;75275;51.348;12.358;2024-03-07T06:08:58;101319.97;;;6.03;75.96
84967;BME280;75275;51.348;12.358;2024-03-07T06:11:25;101319.75;;;6.05;74.98
84967;BME280;75275;51.348;12.358;2024-03-07T06:13:52;101320.50;;;6.18;75.05
84967;BME280;75275;51.348;12.358;2024-03-07T06:16:19;101324.94;;;6.38;73.33
84967;BME280;75275;51.348;12.358;2024-03-07T06:18:46;101324.94;;;6.38;72.68
84967;BME280;75275;51.348;12.358;2024-03-07T06:21:14;101330.28;;;6.26;73.69
84967;BME280;75275;51.348;12.358;2024-03-07T06:23:41;101330.72;;;6.23;72.83
84967;BME280;75275;51.348;12.358;2024-03-07T06:26:13;101339.28;;;6.26;72.85
84967;BME280;75275;51.348;12.358;2024-03-07T06:28:52;101334.94;;;6.19;72.50
84967;BME280;75275;51.348;12.358;2024-03-07T06:31:19;101340.84;;;6.09;71.98
84967;BME280;75275;51.348;12.358;2024-03-07T06:33:46;101339.56;;;6.18;72.15
84967;BME280;75275;51.348;12.358;2024-03-07T06:36:14;101340.38;;;6.19;72.79
84967;BME280;75275;51.348;12.358;2024-03-07T06:38:45;101346.78;;;6.31;71.65
84967;BME280;75275;51.348;12.358;2024-03-07T06:41:12;101350.28;;;6.38;71.14
84967;BME280;75275;51.348;12.358;2024-03-07T06:43:39;101355.28;;;6.41;71.81
84967;BME280;75275;51.348;12.358;2024-03-07T06:46:07;101354.47;;;6.41;70.38
84967;BME280;75275;51.348;12.358;2024-03-07T06:48:34;101354.47;;;6.41;70.74
84967;BME280;75275;51.348;12.358;2024-03-07T06:51:01;101357.03;;;6.36;69.90
84967;BME280;75275;51.348;12.358;2024-03-07T06:53:30;101359.56;;;6.31;70.68
84967;BME280;75275;51.348;12.358;2024-03-07T06:55:57;101353.06;;;6.32;70.05
84967;BME280;75275;51.348;12.358;2024-03-07T06:58:23;101362.16;;;6.19;70.21
84967;BME280;75275;51.348;12.358;2024-03-07T07:00:52;101362.16;;;6.19;69.15
84967;BME280;75275;51.348;12.358;2024-03-07T07:03:20;101359.66;;;6.17;67.89
84967;BME280;75275;51.348;12.358;2024-03-07T07:05:48;101363.25;;;6.11;69.21
84967;BME280;75275;51.348;12.358;2024-03-07T07:08:15;101362.59;;;6.16;67.37
84967;BME280;75275;51.348;12.358;2024-03-07T07:10:43;101364.66;;;6.20;67.33
84967;BME280;75275;51.348;12.358;2024-03-07T07:13:11;101367.28;;;6.34;67.11
84967;BME280;75275;51.348;12.358;2024-03-07T07:15:39;101361.84;;;6.34;64.25
84967;BME280;75275;51.348;12.358;2024-03-07T07:18:05;101363.38;;;6.23;64.38
84967;BME280;75275;51.348;12.358;2024-03-07T07:20:35;101364.66;;;6.20;65.94
84967;BME280;75275;51.348;12.358;2024-03-07T07:23:05;101366.97;;;6.48;66.19
84967;BME280;75275;51.348;12.358;2024-03-07T07:25:32;101367.72;;;6.62;62.12
84967;BME280;75275;51.348;12.358;2024-03-07T07:28:01;101370.97;;;6.46;62.52
84967;BME280;75275;51.348;12.358;2024-03-07T07:30:30;101361.75;;;6.47;63.00
84967;BME280;75275;51.348;12.358;2024-03-07T07:32:57;101371.94;;;6.58;62.43
84967;BME280;75275;51.348;12.358;2024-03-07T07:35:24;101376.44;;;6.71;61.99
84967;BME280;75275;51.348;12.358;2024-03-07T07:37:51;101371.22;;;6.69;61.73
84967;BME280;75275;51.348;12.358;2024-03-07T07:40:22;101370.09;;;6.77;60.66
84967;BME280;75275;51.348;12.358;2024-03-07T07:42:51;101366.88;;;6.62;59.29
84967;BME280;75275;51.348;12.358;2024-03-07T07:45:21;101370.75;;;6.47;57.79
84967;BME280;75275;51.348;12.358;2024-03-07T07:47:49;101360.97;;;6.40;60.43
84967;BME280;75275;51.348;12.358;2024-03-07T07:50:18;101361.97;;;6.45;56.74
84967;BME280;75275;51.348;12.358;2024-03-07T07:52:46;101361.56;;;6.42;58.13
84967;BME280;75275;51.348;12.358;2024-03-07T07:55:15;101360.94;;;6.46;59.62
84967;BME280;75275;51.348;12.358;2024-03-07T07:57:43;101362.78;;;6.46;56.67
84967;BME280;75275;51.348;12.358;2024-03-07T08:00:12;101354.69;;;6.39;55.69
84967;BME280;75275;51.348;12.358;2024-03-07T08:02:49;101366.16;;;6.48;56.30
84967;BME280;75275;51.348;12.358;2024-03-07T08:05:16;101365.59;;;6.64;56.95
84967;BME280;75275;51.348;12.358;2024-03-07T08:07:48;101362.25;;;6.62;55.49
84967;BME280;75275;51.348;12.358;2024-03-07T08:10:17;101365.03;;;6.81;56.58
84967;BME280;75275;51.348;12.358;2024-03-07T08:12:44;101361.44;;;6.87;55.23
84967;BME280;75275;51.348;12.358;2024-03-07T08:15:11;101354.03;;;6.94;53.63
84967;BME280;75275;51.348;12.358;2024-03-07T08:17:41;101371.38;;;6.74;54.09
84967;BME280;75275;51.348;12.358;2024-03-07T08:20:15;101360.75;;;6.66;53.41
84967;BME280;75275;51.348;12.358;2024-03-07T08:22:44;101360.13;;;6.64;53.23
84967;BME280;75275;51.348;12.358;2024-03-07T08:25:12;101363.59;;;6.53;52.65
84967;BME280;75275;51.348;12.358;2024-03-07T08:27:41;101360.59;;;6.61;53.15
84967;BME280;75275;51.348;12.358;2024-03-07T08:30:10;101368.94;;;6.66;54.57
84967;BME280;75275;51.348;12.358;2024-03-07T08:32:38;101365.34;;;6.72;53.80
84967;BME280;75275;51.348;12.358;2024-03-07T08:35:06;101358.84;;;6.92;55.72
84967;BME280;75275;51.348;12.358;2024-03-07T08:37:37;101359.34;;;7.07;53.19
84967;BME280;75275;51.348;12.358;2024-03-07T08:40:05;101360.41;;;7.06;53.11
84967;BME280;75275;51.348;12.358;2024-03-07T08:42:35;101362.34;;;6.99;52.94
84967;BME280;75275;51.348;12.358;2024-03-07T08:45:03;101362.03;;;6.89;52.19
84967;BME280;75275;51.348;12.358;2024-03-07T08:47:31;101360.75;;;6.91;51.78
84967;BME280;75275;51.348;12.358;2024-03-07T08:49:58;101358.38;;;6.77;50.33
84967;BME280;75275;51.348;12.358;2024-03-07T08:52:27;101371.56;;;6.80;49.97
84967;BME280;75275;51.348;12.358;2024-03-07T08:54:56;101370.78;;;6.97;48.78
84967;BME280;75275;51.348;12.358;2024-03-07T08:57:22;101368.13;;;7.09;48.00
84967;BME280;75275;51.348;12.358;2024-03-07T08:59:49;101365.09;;;6.99;48.17
84967;BME280;75275;51.348;12.358;2024-03-07T09:02:17;101366.00;;;7.11;49.29
84967;BME280;75275;51.348;12.358;2024-03-07T09:04:43;101376.13;;;7.04;48.16
84967;BME280;75275;51.348;12.358;2024-03-07T09:07:11;101358.59;;;7.37;47.59
84967;BME280;75275;51.348;12.358;2024-03-07T09:09:40;101346.66;;;7.86;47.82
84967;BME280;75275;51.348;12.358;2024-03-07T09:12:10;101346.53;;;8.41;46.50
84967;BME280;75275;51.348;12.358;2024-03-07T09:14:37;101347.19;;;8.37;45.28
84967;BME280;75275;51.348;12.358;2024-03-07T09:17:05;101346.72;;;8.28;44.60
84967;BME280;75275;51.348;12.358;2024-03-07T09:19:32;101342.72;;;8.12;46.09
84967;BME280;75275;51.348;12.358;2024-03-07T09:22:01;101341.41;;;8.03;44.33
84967;BME280;75275;51.348;12.358;2024-03-07T09:24:30;101344.97;;;8.04;44.06
84967;BME280;75275;51.348;12.358;2024-03-07T09:26:57;101347.56;;;8.82;42.66
84967;BME280;75275;51.348;12.358;2024-03-07T09:29:26;101345.53;;;10.34;39.67
84967;BME280;75275;51.348;12.358;2024-03-07T09:31:56;101325.69;;;14.11;30.45
84967;BME280;75275;51.348;12.358;2024-03-07T09:34:24;101325.69;;;15.13;28.08
84967;BME280;75275;51.348;12.358;2024-03-07T09:36:51;101318.19;;;17.78;24.81
84967;BME280;75275;51.348;12.358;2024-03-07T09:39:19;101311.94;;;18.95;22.51
84967;BME280;75275;51.348;12.358;2024-03-07T09:41:46;101328.06;;;19.67;21.20
84967;BME280;75275;51.348;12.358;2024-03-07T09:44:14;101321.84;;;17.50;24.41
84967;BME280;75275;51.348;12.358;2024-03-07T09:46:49;101331.75;;;14.23;27.98
84967;BME280;75275;51.348;12.358;2024-03-07T09:49:17;101340.59;;;14.40;28.44
84967;BME280;75275;51.348;12.358;2024-03-07T09:51:45;101329.25;;;15.99;25.40
84967;BME280;75275;51.348;12.358;2024-03-07T09:54:13;101339.78;;;14.35;27.97
84967;BME280;75275;51.348;12.358;2024-03-07T09:56:41;101339.63;;;11.92;31.66
84967;BME280;75275;51.348;12.358;2024-03-07T09:59:11;101352.38;;;10.65;34.37
84967;BME280;75275;51.348;12.358;2024-03-07T10:01:39;101350.13;;;9.88;36.55
84967;BME280;75275;51.348;12.358;2024-03-07T10:04:13;101346.13;;;10.07;36.61
84967;BME280;75275;51.348;12.358;2024-03-07T10:06:40;101336.13;;;11.36;35.78
84967;BME280;75275;51.348;12.358;2024-03-07T10:09:08;101337.94;;;12.45;33.39
84967;BME280;75275;51.348;12.358;2024-03-07T10:11:34;101337.75;;;13.27;32.22
84967;BME280;75275;51.348;12.358;2024-03-07T10:14:02;101336.44;;;12.97;32.18
84967;BME280;75275;51.348;12.358;2024-03-07T10:16:30;101333.97;;;12.63;33.51
84967;BME280;75275;51.348;12.358;2024-03-07T10:18:58;101334.47;;;11.79;34.11
84967;BME280;75275;51.348;12.358;2024-03-07T10:21:27;101344.59;;;11.51;35.69
84967;BME280;75275;51.348;12.358;2024-03-07T10:24:04;101333.91;;;11.11;36.17
84967;BME280;75275;51.348;12.358;2024-03-07T10:26:34;101348.56;;;10.83;37.42
84967;BME280;75275;51.348;12.358;2024-03-07T10:29:02;101342.56;;;11.25;36.46
84967;BME280;75275;51.348;12.358;2024-03-07T10:31:29;101352.56;;;11.31;35.55
84967;BME280;75275;51.348;12.358;2024-03-07T10:34:01;101336.13;;;10.30;36.68
84967;BME280;75275;51.348;12.358;2024-03-07T10:36:31;101336.41;;;9.59;37.54
84967;BME280;75275;51.348;12.358;2024-03-07T10:39:00;101329.53;;;9.45;38.02
84967;BME280;75275;51.348;12.358;2024-03-07T10:41:43;101340.59;;;9.50;37.45
84967;BME280;75275;51.348;12.358;2024-03-07T10:44:11;101333.53;;;8.90;38.25
84967;BME280;75275;51.348;12.358;2024-03-07T10:46:46;101341.84;;;8.84;40.60
84967;BME280;75275;51.348;12.358;2024-03-07T10:49:19;101331.13;;;8.71;38.02
84967;BME280;75275;51.348;12.358;2024-03-07T10:51:58;101345.75;;;9.00;37.42
84967;BME280;75275;51.348;12.358;2024-03-07T10:54:34;101326.38;;;9.13;38.23
84967;BME280;75275;51.348;12.358;2024-03-07T10:57:15;101319.22;;;9.35;38.11
84967;BME280;75275;51.348;12.358;2024-03-07T10:59:49;101305.91;;;9.68;37.78
84967;BME280;75275;51.348;12.358;2024-03-07T11:02:27;101306.78;;;10.13;36.78
84967;BME280;75275;51.348;12.358;2024-03-07T11:04:57;101320.97;;;10.56;36.40
84967;BME280;75275;51.348;12.358;2024-03-07T11:07:27;101313.44;;;9.89;35.85
84967;BME280;75275;51.348;12.358;2024-03-07T11:09:55;101314.75;;;9.58;37.75
84967;BME280;75275;51.348;12.358;2024-03-07T11:12:23;101314.25;;;9.21;36.88
84967;BME280;75275;51.348;12.358;2024-03-07T11:14:53;101311.50;;;9.21;37.43
84967;BME280;75275;51.348;12.358;2024-03-07T11:17:22;101311.66;;;9.54;37.43
84967;BME280;75275;51.348;12.358;2024-03-07T11:19:51;101309.28;;;10.15;36.52
84967;BME280;75275;51.348;12.358;2024-03-07T11:22:43;101296.88;;;10.41;35.73
84967;BME280;75275;51.348;12.358;2024-03-07T11:25:11;101296.38;;;10.44;36.85
84967;BME280;75275;51.348;12.358;2024-03-07T11:27:38;101298.28;;;10.60;35.56
84967;BME280;75275;51.348;12.358;2024-03-07T11:30:09;101292.63;;;9.88;36.79
84967;BME280;75275;51.348;12.358;2024-03-07T11:32:38;101298.09;;;9.59;37.77
84967;BME280;75275;51.348;12.358;2024-03-07T11:35:11;101296.03;;;9.67;38.22
84967;BME280;75275;51.348;12.358;2024-03-07T11:37:40;101298.88;;;9.31;37.94
84967;BME280;75275;51.348;12.358;2024-03-07T11:40:12;101302.22;;;9.62;37.60
84967;BME280;75275;51.348;12.358;2024-03-07T11:42:46;101304.69;;;10.04;37.55
84967;BME280;75275;51.348;12.358;2024-03-07T11:45:15;101297.59;;;9.91;37.96
84967;BME280;75275;51.348;12.358;2024-03-07T11:47:51;101285.56;;;9.63;38.14
84967;BME280;75275;51.348;12.358;2024-03-07T11:50:23;101295.53;;;9.29;38.81
84967;BME280;75275;51.348;12.358;2024-03-07T11:52:52;101297.59;;;9.10;39.83
84967;BME280;75275;51.348;12.358;2024-03-07T11:55:21;101298.94;;;8.84;40.93
84967;BME280;75275;51.348;12.358;2024-03-07T11:57:49;101293.69;;;8.59;41.32
84967;BME280;75275;51.348;12.358;2024-03-07T12:00:18;101294.69;;;8.35;42.61
84967;BME280;75275;51.348;12.358;2024-03-07T12:02:46;101286.78;;;8.45;43.25
84967;BME280;75275;51.348;12.358;2024-03-07T12:05:14;101300.13;;;8.23;42.92
84967;BME280;75275;51.348;12.358;2024-03-07T12:07:42;101296.91;;;8.03;43.68
84967;BME280;75275;51.348;12.358;2024-03-07T12:10:10;101297.63;;;8.10;44.32
84967;BME280;75275;51.348;12.358;2024-03-07T12:12:38;101305.81;;;8.10;43.91
84967;BME280;75275;51.348;12.358;2024-03-07T12:15:05;101298.84;;;8.14;43.79
84967;BME280;75275;51.348;12.358;2024-03-07T12:17:41;101293.84;;;8.23;42.00
84967;BME280;75275;51.348;12.358;2024-03-07T12:20:09;101291.31;;;8.39;42.33
84967;BME280;75275;51.348;12.358;2024-03-07T12:22:50;101295.66;;;8.29;41.90
84967;BME280;75275;51.348;12.358;2024-03-07T12:25:18;101289.41;;;8.40;41.89
84967;BME280;75275;51.348;12.358;2024-03-07T12:27:59;101298.13;;;8.30;41.70
84967;BME280;75275;51.348;12.358;2024-03-07T12:30:28;101292.78;;;8.24;41.90
84967;BME280;75275;51.348;12.358;2024-03-07T12:32:58;101289.19;;;8.11;43.47
84967;BME280;75275;51.348;12.358;2024-03-07T12:35:27;101296.41;;;8.06;42.84
84967;BME280;75275;51.348;12.358;2024-03-07T12:37:54;101302.38;;;8.03;43.97
84967;BME280;75275;51.348;12.358;2024-03-07T12:40:21;101283.53;;;8.25;43.39
84967;BME280;75275;51.348;12.358;2024-03-07T12:42:52;101281.31;;;8.45;42.50
84967;BME280;75275;51.348;12.358;2024-03-07T12:45:19;101283.13;;;8.75;41.72
84967;BME280;75275;51.348;12.358;2024-03-07T12:47:47;101277.59;;;9.22;40.99
84967;BME280;75275;51.348;12.358;2024-03-07T12:50:18;101274.25;;;9.31;39.18
84967;BME280;75275;51.348;12.358;2024-03-07T12:52:46;101281.63;;;9.31;38.69
84967;BME280;75275;51.348;12.358;2024-03-07T12:55:15;101259.22;;;9.74;38.05
84967;BME280;75275;51.348;12.358;2024-03-07T12:57:47;101262.50;;;10.05;37.53
84967;BME280;75275;51.348;12.358;2024-03-07T13:00:18;101257.56;;;10.52;36.93
84967;BME280;75275;51.348;12.358;2024-03-07T13:02:48;101254.75;;;10.47;35.81